Terminal Aerodrome Forecast
Issued by NWS Paducah, KY

Home | Current Version | Previous Version | Text Only | Print | Product List | Glossary On
Versions: 1 2 3 4 5 6 7 8 9 10 11 12 13 14 15 16 17 18 19 20
021
FTUS43 KPAH 271523 AAB
TAFPAH
TAF AMD
KPAH 271523Z 2715/2812 14005KT P6SM SCT120 BKN250
     FM272000 20012G21KT 3SM -TSRA BR BKN015CB
     FM280000 19008KT P6SM SCT020 BKN100
     FM280600 24004KT P6SM SCT100=

USA.gov is the U.S. government's official web portal to all federal, state and local government web resources and services.